sensor_id;sensor_type;location;lat;lon;timestamp;P1;durP1;ratioP1;P2;durP2;ratioP2
49738;SDS011;53662;50.114;8.626;2023-09-30T00:01:58;4.13;;;2.35;;
49738;SDS011;53662;50.114;8.626;2023-09-30T00:04:24;7.38;;;3.10;;
49738;SDS011;53662;50.114;8.626;2023-09-30T00:06:52;9.25;;;2.42;;
49738;SDS011;53662;50.114;8.626;2023-09-30T00:09:18;5.45;;;2.67;;
49738;SDS011;53662;50.114;8.626;2023-09-30T00:11:44;4.40;;;1.90;;
49738;SDS011;53662;50.114;8.626;2023-09-30T00:14:10;5.22;;;2.60;;
49738;SDS011;53662;50.114;8.626;2023-09-30T00:16:36;10.23;;;2.83;;
49738;SDS011;53662;50.114;8.626;2023-09-30T00:19:02;6.10;;;2.45;;
49738;SDS011;53662;50.114;8.626;2023-09-30T00:21:28;13.38;;;2.80;;
49738;SDS011;53662;50.114;8.626;2023-09-30T00:23:54;7.07;;;2.65;;
49738;SDS011;53662;50.114;8.626;2023-09-30T00:26:20;8.23;;;2.30;;
49738;SDS011;53662;50.114;8.626;2023-09-30T00:28:47;6.13;;;2.10;;
49738;SDS011;53662;50.114;8.626;2023-09-30T00:31:13;9.32;;;2.90;;
49738;SDS011;53662;50.114;8.626;2023-09-30T00:33:39;7.03;;;2.40;;
49738;SDS011;53662;50.114;8.626;2023-09-30T00:36:05;9.10;;;2.53;;
49738;SDS011;53662;50.114;8.626;2023-09-30T00:38:32;5.95;;;2.35;;
49738;SDS011;53662;50.114;8.626;2023-09-30T00:40:58;3.15;;;1.90;;
49738;SDS011;53662;50.114;8.626;2023-09-30T00:43:24;8.38;;;2.25;;
49738;SDS011;53662;50.114;8.626;2023-09-30T00:45:56;6.93;;;2.30;;
49738;SDS011;53662;50.114;8.626;2023-09-30T00:48:27;5.20;;;2.58;;
49738;SDS011;53662;50.114;8.626;2023-09-30T00:50:53;6.15;;;2.40;;
49738;SDS011;53662;50.114;8.626;2023-09-30T00:53:20;7.47;;;2.65;;
49738;SDS011;53662;50.114;8.626;2023-09-30T00:55:46;7.57;;;2.67;;
49738;SDS011;53662;50.114;8.626;2023-09-30T00:58:12;6.28;;;3.08;;
49738;SDS011;53662;50.114;8.626;2023-09-30T01:00:38;6.28;;;3.03;;
49738;SDS011;53662;50.114;8.626;2023-09-30T01:03:05;7.80;;;3.38;;
49738;SDS011;53662;50.114;8.626;2023-09-30T01:05:31;3.88;;;2.92;;
49738;SDS011;53662;50.114;8.626;2023-09-30T01:07:57;5.03;;;2.55;;
49738;SDS011;53662;50.114;8.626;2023-09-30T01:10:23;8.30;;;3.08;;
49738;SDS011;53662;50.114;8.626;2023-09-30T01:12:49;11.20;;;3.40;;
49738;SDS011;53662;50.114;8.626;2023-09-30T01:15:15;5.68;;;3.38;;
49738;SDS011;53662;50.114;8.626;2023-09-30T01:17:41;9.18;;;3.15;;
49738;SDS011;53662;50.114;8.626;2023-09-30T01:20:07;6.53;;;2.80;;
49738;SDS011;53662;50.114;8.626;2023-09-30T01:22:33;6.70;;;3.15;;
49738;SDS011;53662;50.114;8.626;2023-09-30T01:24:59;8.15;;;2.88;;
49738;SDS011;53662;50.114;8.626;2023-09-30T01:27:25;5.05;;;2.63;;
49738;SDS011;53662;50.114;8.626;2023-09-30T01:29:51;4.82;;;2.53;;
49738;SDS011;53662;50.114;8.626;2023-09-30T01:32:17;5.55;;;2.70;;
49738;SDS011;53662;50.114;8.626;2023-09-30T01:34:43;3.85;;;2.67;;
49738;SDS011;53662;50.114;8.626;2023-09-30T01:37:09;8.00;;;2.78;;
49738;SDS011;53662;50.114;8.626;2023-09-30T01:39:35;4.50;;;3.25;;
49738;SDS011;53662;50.114;8.626;2023-09-30T01:42:01;8.20;;;2.75;;
49738;SDS011;53662;50.114;8.626;2023-09-30T01:44:27;5.30;;;2.33;;
49738;SDS011;53662;50.114;8.626;2023-09-30T01:46:53;9.48;;;3.13;;
49738;SDS011;53662;50.114;8.626;2023-09-30T01:49:19;7.22;;;3.08;;
49738;SDS011;53662;50.114;8.626;2023-09-30T01:51:48;4.35;;;3.08;;
49738;SDS011;53662;50.114;8.626;2023-09-30T01:54:14;11.70;;;3.08;;
49738;SDS011;53662;50.114;8.626;2023-09-30T01:56:40;11.50;;;3.72;;
49738;SDS011;53662;50.114;8.626;2023-09-30T01:59:06;5.38;;;3.10;;
49738;SDS011;53662;50.114;8.626;2023-09-30T02:01:32;7.82;;;3.53;;
49738;SDS011;53662;50.114;8.626;2023-09-30T02:03:58;9.45;;;3.03;;
49738;SDS011;53662;50.114;8.626;2023-09-30T02:06:24;9.40;;;3.33;;
49738;SDS011;53662;50.114;8.626;2023-09-30T02:08:50;9.75;;;3.33;;
49738;SDS011;53662;50.114;8.626;2023-09-30T02:11:16;10.50;;;4.15;;
49738;SDS011;53662;50.114;8.626;2023-09-30T02:13:42;5.97;;;3.08;;
49738;SDS011;53662;50.114;8.626;2023-09-30T02:16:12;9.88;;;3.40;;
49738;SDS011;53662;50.114;8.626;2023-09-30T02:18:39;8.18;;;3.83;;
49738;SDS011;53662;50.114;8.626;2023-09-30T02:21:06;8.00;;;3.58;;
49738;SDS011;53662;50.114;8.626;2023-09-30T02:23:33;9.02;;;3.33;;
49738;SDS011;53662;50.114;8.626;2023-09-30T02:25:59;5.03;;;3.55;;
49738;SDS011;53662;50.114;8.626;2023-09-30T02:28:25;5.40;;;3.00;;
49738;SDS011;53662;50.114;8.626;2023-09-30T02:30:51;9.63;;;3.38;;
49738;SDS011;53662;50.114;8.626;2023-09-30T02:33:18;6.85;;;2.75;;
49738;SDS011;53662;50.114;8.626;2023-09-30T02:35:44;8.45;;;3.03;;
49738;SDS011;53662;50.114;8.626;2023-09-30T02:38:10;5.53;;;3.30;;
49738;SDS011;53662;50.114;8.626;2023-09-30T02:40:36;9.90;;;3.53;;
49738;SDS011;53662;50.114;8.626;2023-09-30T02:43:03;7.55;;;3.25;;
49738;SDS011;53662;50.114;8.626;2023-09-30T02:45:29;7.10;;;2.97;;
49738;SDS011;53662;50.114;8.626;2023-09-30T02:47:55;11.43;;;3.42;;
49738;SDS011;53662;50.114;8.626;2023-09-30T02:50:21;6.68;;;3.25;;
49738;SDS011;53662;50.114;8.626;2023-09-30T02:52:47;10.63;;;3.78;;
49738;SDS011;53662;50.114;8.626;2023-09-30T02:55:14;9.98;;;3.80;;
49738;SDS011;53662;50.114;8.626;2023-09-30T02:57:40;9.65;;;3.42;;
49738;SDS011;53662;50.114;8.626;2023-09-30T03:00:08;9.13;;;3.53;;
49738;SDS011;53662;50.114;8.626;2023-09-30T03:02:57;7.78;;;3.45;;
49738;SDS011;53662;50.114;8.626;2023-09-30T03:05:23;14.35;;;3.45;;
49738;SDS011;53662;50.114;8.626;2023-09-30T03:07:49;8.15;;;3.60;;
49738;SDS011;53662;50.114;8.626;2023-09-30T03:10:19;7.65;;;3.25;;
49738;SDS011;53662;50.114;8.626;2023-09-30T03:12:48;5.50;;;3.58;;
49738;SDS011;53662;50.114;8.626;2023-09-30T03:15:15;9.48;;;3.85;;
49738;SDS011;53662;50.114;8.626;2023-09-30T03:17:41;6.22;;;3.67;;
49738;SDS011;53662;50.114;8.626;2023-09-30T03:20:08;6.10;;;3.63;;
49738;SDS011;53662;50.114;8.626;2023-09-30T03:22:43;11.98;;;4.13;;
49738;SDS011;53662;50.114;8.626;2023-09-30T03:25:12;14.00;;;3.80;;
49738;SDS011;53662;50.114;8.626;2023-09-30T03:27:40;7.63;;;3.42;;
49738;SDS011;53662;50.114;8.626;2023-09-30T03:30:06;12.10;;;4.25;;
49738;SDS011;53662;50.114;8.626;2023-09-30T03:32:32;10.07;;;4.18;;
49738;SDS011;53662;50.114;8.626;2023-09-30T03:35:01;10.27;;;4.63;;
49738;SDS011;53662;50.114;8.626;2023-09-30T03:37:31;6.40;;;4.18;;
49738;SDS011;53662;50.114;8.626;2023-09-30T03:39:57;9.65;;;4.00;;
49738;SDS011;53662;50.114;8.626;2023-09-30T03:42:23;10.13;;;4.47;;
49738;SDS011;53662;50.114;8.626;2023-09-30T03:44:49;6.50;;;3.60;;
49738;SDS011;53662;50.114;8.626;2023-09-30T03:47:16;6.65;;;4.40;;
49738;SDS011;53662;50.114;8.626;2023-09-30T03:49:42;8.30;;;4.72;;
49738;SDS011;53662;50.114;8.626;2023-09-30T03:52:09;7.03;;;3.78;;
49738;SDS011;53662;50.114;8.626;2023-09-30T03:54:35;7.38;;;4.20;;
49738;SDS011;53662;50.114;8.626;2023-09-30T03:57:02;8.30;;;4.07;;
49738;SDS011;53662;50.114;8.626;2023-09-30T03:59:28;9.57;;;4.00;;
49738;SDS011;53662;50.114;8.626;2023-09-30T04:01:55;4.90;;;3.28;;
49738;SDS011;53662;50.114;8.626;2023-09-30T04:04:23;9.75;;;4.68;;
49738;SDS011;53662;50.114;8.626;2023-09-30T04:06:50;9.82;;;3.53;;
49738;SDS011;53662;50.114;8.626;2023-09-30T04:09:17;9.80;;;4.15;;
49738;SDS011;53662;50.114;8.626;2023-09-30T04:11:43;6.50;;;4.53;;
49738;SDS011;53662;50.114;8.626;2023-09-30T04:14:09;12.20;;;4.50;;
49738;SDS011;53662;50.114;8.626;2023-09-30T04:16:35;12.50;;;4.28;;
49738;SDS011;53662;50.114;8.626;2023-09-30T04:19:02;11.40;;;4.45;;
49738;SDS011;53662;50.114;8.626;2023-09-30T04:21:29;11.80;;;4.40;;
49738;SDS011;53662;50.114;8.626;2023-09-30T04:23:59;6.97;;;4.15;;
49738;SDS011;53662;50.114;8.626;2023-09-30T04:26:25;9.82;;;4.10;;
49738;SDS011;53662;50.114;8.626;2023-09-30T04:28:51;12.02;;;3.78;;
49738;SDS011;53662;50.114;8.626;2023-09-30T04:31:18;10.10;;;4.28;;
49738;SDS011;53662;50.114;8.626;2023-09-30T04:33:44;6.45;;;3.88;;
49738;SDS011;53662;50.114;8.626;2023-09-30T04:36:10;7.97;;;4.20;;
49738;SDS011;53662;50.114;8.626;2023-09-30T04:38:36;9.45;;;3.90;;
49738;SDS011;53662;50.114;8.626;2023-09-30T04:41:02;6.22;;;3.97;;
49738;SDS011;53662;50.114;8.626;2023-09-30T04:43:28;11.88;;;4.15;;
49738;SDS011;53662;50.114;8.626;2023-09-30T04:45:54;12.15;;;4.18;;
49738;SDS011;53662;50.114;8.626;2023-09-30T04:48:22;9.50;;;3.88;;
49738;SDS011;53662;50.114;8.626;2023-09-30T04:50:48;10.02;;;4.20;;
49738;SDS011;53662;50.114;8.626;2023-09-30T04:53:16;8.98;;;4.40;;
49738;SDS011;53662;50.114;8.626;2023-09-30T04:55:42;11.73;;;4.45;;
49738;SDS011;53662;50.114;8.626;2023-09-30T04:58:08;10.02;;;4.18;;
49738;SDS011;53662;50.114;8.626;2023-09-30T05:00:34;15.48;;;5.05;;
49738;SDS011;53662;50.114;8.626;2023-09-30T05:03:00;12.00;;;4.88;;
49738;SDS011;53662;50.114;8.626;2023-09-30T05:05:26;8.15;;;4.15;;
49738;SDS011;53662;50.114;8.626;2023-09-30T05:07:53;9.20;;;3.80;;
49738;SDS011;53662;50.114;8.626;2023-09-30T05:10:19;9.15;;;3.97;;
49738;SDS011;53662;50.114;8.626;2023-09-30T05:12:45;16.58;;;4.95;;
49738;SDS011;53662;50.114;8.626;2023-09-30T05:15:12;14.50;;;4.35;;
49738;SDS011;53662;50.114;8.626;2023-09-30T05:17:41;9.80;;;4.05;;
49738;SDS011;53662;50.114;8.626;2023-09-30T05:20:08;9.38;;;4.40;;
49738;SDS011;53662;50.114;8.626;2023-09-30T05:22:35;8.38;;;4.60;;
49738;SDS011;53662;50.114;8.626;2023-09-30T05:25:01;14.07;;;4.90;;
49738;SDS011;53662;50.114;8.626;2023-09-30T05:27:28;16.02;;;5.22;;
49738;SDS011;53662;50.114;8.626;2023-09-30T05:29:54;10.43;;;4.55;;
49738;SDS011;53662;50.114;8.626;2023-09-30T05:32:20;11.77;;;4.60;;
49738;SDS011;53662;50.114;8.626;2023-09-30T05:34:46;16.92;;;4.68;;
49738;SDS011;53662;50.114;8.626;2023-09-30T05:37:12;9.80;;;4.65;;
49738;SDS011;53662;50.114;8.626;2023-09-30T05:39:38;9.15;;;4.38;;
49738;SDS011;53662;50.114;8.626;2023-09-30T05:42:05;15.50;;;4.30;;
49738;SDS011;53662;50.114;8.626;2023-09-30T05:44:32;12.63;;;4.55;;
49738;SDS011;53662;50.114;8.626;2023-09-30T05:46:58;13.23;;;5.07;;
49738;SDS011;53662;50.114;8.626;2023-09-30T05:49:25;16.73;;;5.30;;
49738;SDS011;53662;50.114;8.626;2023-09-30T05:51:51;8.20;;;4.75;;
49738;SDS011;53662;50.114;8.626;2023-09-30T05:54:16;12.57;;;4.63;;
49738;SDS011;53662;50.114;8.626;2023-09-30T05:56:42;8.00;;;4.40;;
49738;SDS011;53662;50.114;8.626;2023-09-30T05:59:09;8.45;;;4.35;;
49738;SDS011;53662;50.114;8.626;2023-09-30T06:01:35;9.70;;;4.38;;
49738;SDS011;53662;50.114;8.626;2023-09-30T06:04:01;23.48;;;5.05;;
49738;SDS011;53662;50.114;8.626;2023-09-30T06:06:27;13.25;;;5.05;;
49738;SDS011;53662;50.114;8.626;2023-09-30T06:08:55;11.50;;;4.72;;
49738;SDS011;53662;50.114;8.626;2023-09-30T06:11:23;13.02;;;5.03;;
49738;SDS011;53662;50.114;8.626;2023-09-30T06:13:49;10.20;;;4.75;;
49738;SDS011;53662;50.114;8.626;2023-09-30T06:16:15;10.48;;;4.78;;
49738;SDS011;53662;50.114;8.626;2023-09-30T06:18:42;12.88;;;5.20;;
49738;SDS011;53662;50.114;8.626;2023-09-30T06:21:10;14.85;;;4.75;;
49738;SDS011;53662;50.114;8.626;2023-09-30T06:23:36;18.13;;;5.15;;
49738;SDS011;53662;50.114;8.626;2023-09-30T06:26:01;18.45;;;5.50;;
49738;SDS011;53662;50.114;8.626;2023-09-30T06:28:28;6.75;;;4.35;;
49738;SDS011;53662;50.114;8.626;2023-09-30T06:30:56;12.10;;;5.20;;
49738;SDS011;53662;50.114;8.626;2023-09-30T06:33:22;9.32;;;4.53;;
49738;SDS011;53662;50.114;8.626;2023-09-30T06:35:48;12.20;;;5.47;;
49738;SDS011;53662;50.114;8.626;2023-09-30T06:38:18;11.07;;;5.13;;
49738;SDS011;53662;50.114;8.626;2023-09-30T06:40:44;12.05;;;5.10;;
49738;SDS011;53662;50.114;8.626;2023-09-30T06:43:11;16.00;;;4.82;;
49738;SDS011;53662;50.114;8.626;2023-09-30T06:45:40;9.65;;;4.82;;
49738;SDS011;53662;50.114;8.626;2023-09-30T06:48:07;12.15;;;5.13;;
49738;SDS011;53662;50.114;8.626;2023-09-30T06:50:37;13.88;;;5.88;;
49738;SDS011;53662;50.114;8.626;2023-09-30T06:53:03;10.57;;;5.00;;
49738;SDS011;53662;50.114;8.626;2023-09-30T06:55:30;12.38;;;5.20;;
49738;SDS011;53662;50.114;8.626;2023-09-30T06:57:56;14.07;;;5.55;;
49738;SDS011;53662;50.114;8.626;2023-09-30T07:00:22;18.20;;;6.00;;
49738;SDS011;53662;50.114;8.626;2023-09-30T07:02:50;12.70;;;5.97;;
49738;SDS011;53662;50.114;8.626;2023-09-30T07:05:16;11.27;;;5.97;;
49738;SDS011;53662;50.114;8.626;2023-09-30T07:07:42;15.75;;;6.85;;
49738;SDS011;53662;50.114;8.626;2023-09-30T07:10:09;9.45;;;5.45;;
49738;SDS011;53662;50.114;8.626;2023-09-30T07:12:36;15.30;;;6.22;;
49738;SDS011;53662;50.114;8.626;2023-09-30T07:15:02;22.35;;;7.60;;
49738;SDS011;53662;50.114;8.626;2023-09-30T07:17:28;15.82;;;7.97;;
49738;SDS011;53662;50.114;8.626;2023-09-30T07:19:54;13.18;;;7.40;;
49738;SDS011;53662;50.114;8.626;2023-09-30T07:22:20;16.48;;;7.45;;
49738;SDS011;53662;50.114;8.626;2023-09-30T07:24:46;20.02;;;7.32;;
49738;SDS011;53662;50.114;8.626;2023-09-30T07:27:12;18.52;;;7.10;;
49738;SDS011;53662;50.114;8.626;2023-09-30T07:29:38;27.80;;;7.47;;
49738;SDS011;53662;50.114;8.626;2023-09-30T07:32:05;22.00;;;7.13;;
49738;SDS011;53662;50.114;8.626;2023-09-30T07:34:31;18.60;;;7.35;;
49738;SDS011;53662;50.114;8.626;2023-09-30T07:36:57;16.67;;;7.60;;
49738;SDS011;53662;50.114;8.626;2023-09-30T07:39:23;16.85;;;6.70;;
49738;SDS011;53662;50.114;8.626;2023-09-30T07:41:49;20.58;;;8.65;;
49738;SDS011;53662;50.114;8.626;2023-09-30T07:44:15;24.77;;;7.57;;
49738;SDS011;53662;50.114;8.626;2023-09-30T07:46:41;19.23;;;7.13;;
49738;SDS011;53662;50.114;8.626;2023-09-30T07:49:08;23.38;;;6.32;;
49738;SDS011;53662;50.114;8.626;2023-09-30T07:51:35;12.68;;;5.43;;
49738;SDS011;53662;50.114;8.626;2023-09-30T07:54:01;13.27;;;5.75;;
49738;SDS011;53662;50.114;8.626;2023-09-30T07:56:28;22.25;;;6.20;;
49738;SDS011;53662;50.114;8.626;2023-09-30T07:58:54;17.60;;;4.97;;
49738;SDS011;53662;50.114;8.626;2023-09-30T08:01:20;11.65;;;6.28;;
49738;SDS011;53662;50.114;8.626;2023-09-30T08:03:46;17.02;;;5.65;;
49738;SDS011;53662;50.114;8.626;2023-09-30T08:06:12;14.68;;;5.10;;
49738;SDS011;53662;50.114;8.626;2023-09-30T08:08:38;12.35;;;4.45;;
49738;SDS011;53662;50.114;8.626;2023-09-30T08:11:04;16.20;;;4.80;;
49738;SDS011;53662;50.114;8.626;2023-09-30T08:13:31;15.88;;;5.32;;
49738;SDS011;53662;50.114;8.626;2023-09-30T08:15:57;13.35;;;5.38;;
49738;SDS011;53662;50.114;8.626;2023-09-30T08:18:23;17.60;;;5.88;;
49738;SDS011;53662;50.114;8.626;2023-09-30T08:20:49;12.60;;;5.32;;
49738;SDS011;53662;50.114;8.626;2023-09-30T08:23:15;18.45;;;6.72;;
49738;SDS011;53662;50.114;8.626;2023-09-30T08:25:41;11.52;;;6.82;;
49738;SDS011;53662;50.114;8.626;2023-09-30T08:28:07;16.98;;;6.40;;
49738;SDS011;53662;50.114;8.626;2023-09-30T08:30:34;14.38;;;6.20;;
49738;SDS011;53662;50.114;8.626;2023-09-30T08:33:00;19.30;;;6.40;;
49738;SDS011;53662;50.114;8.626;2023-09-30T08:35:26;12.73;;;6.22;;
49738;SDS011;53662;50.114;8.626;2023-09-30T08:37:52;12.05;;;6.00;;
49738;SDS011;53662;50.114;8.626;2023-09-30T08:40:19;12.38;;;6.70;;
49738;SDS011;53662;50.114;8.626;2023-09-30T08:42:45;16.98;;;6.82;;
49738;SDS011;53662;50.114;8.626;2023-09-30T08:45:13;12.70;;;6.40;;
49738;SDS011;53662;50.114;8.626;2023-09-30T08:47:41;18.02;;;6.90;;
49738;SDS011;53662;50.114;8.626;2023-09-30T08:50:07;12.70;;;6.50;;
49738;SDS011;53662;50.114;8.626;2023-09-30T08:52:35;18.60;;;6.35;;
49738;SDS011;53662;50.114;8.626;2023-09-30T08:55:01;11.57;;;6.18;;
49738;SDS011;53662;50.114;8.626;2023-09-30T08:57:28;15.65;;;6.20;;
49738;SDS011;53662;50.114;8.626;2023-09-30T08:59:54;15.20;;;6.45;;
49738;SDS011;53662;50.114;8.626;2023-09-30T09:02:20;18.48;;;5.93;;
49738;SDS011;53662;50.114;8.626;2023-09-30T09:04:46;14.23;;;6.10;;
49738;SDS011;53662;50.114;8.626;2023-09-30T09:07:14;12.13;;;5.78;;
49738;SDS011;53662;50.114;8.626;2023-09-30T09:09:40;13.30;;;5.35;;
49738;SDS011;53662;50.114;8.626;2023-09-30T09:12:06;13.95;;;6.20;;
49738;SDS011;53662;50.114;8.626;2023-09-30T09:14:37;14.23;;;5.72;;
49738;SDS011;53662;50.114;8.626;2023-09-30T09:17:06;10.90;;;5.50;;
49738;SDS011;53662;50.114;8.626;2023-09-30T09:19:32;10.70;;;5.63;;
49738;SDS011;53662;50.114;8.626;2023-09-30T09:21:59;14.50;;;5.90;;
49738;SDS011;53662;50.114;8.626;2023-09-30T09:29:49;15.18;;;5.28;;
49738;SDS011;53662;50.114;8.626;2023-09-30T09:32:16;11.73;;;5.38;;
49738;SDS011;53662;50.114;8.626;2023-09-30T09:34:43;11.15;;;5.45;;
49738;SDS011;53662;50.114;8.626;2023-09-30T09:37:21;10.18;;;5.68;;
49738;SDS011;53662;50.114;8.626;2023-09-30T09:39:54;8.63;;;5.10;;
49738;SDS011;53662;50.114;8.626;2023-09-30T09:42:28;10.68;;;5.10;;
49738;SDS011;53662;50.114;8.626;2023-09-30T09:44:55;12.18;;;5.50;;
49738;SDS011;53662;50.114;8.626;2023-09-30T09:47:25;11.73;;;5.07;;
49738;SDS011;53662;50.114;8.626;2023-09-30T09:49:52;17.80;;;6.55;;
49738;SDS011;53662;50.114;8.626;2023-09-30T09:52:18;16.38;;;5.55;;
49738;SDS011;53662;50.114;8.626;2023-09-30T09:54:45;11.13;;;4.55;;
49738;SDS011;53662;50.114;8.626;2023-09-30T09:57:12;9.82;;;4.95;;
49738;SDS011;53662;50.114;8.626;2023-09-30T09:59:41;12.77;;;5.65;;
49738;SDS011;53662;50.114;8.626;2023-09-30T10:02:10;13.80;;;5.50;;
49738;SDS011;53662;50.114;8.626;2023-09-30T10:04:39;8.63;;;4.95;;
49738;SDS011;53662;50.114;8.626;2023-09-30T10:07:07;9.25;;;4.93;;
49738;SDS011;53662;50.114;8.626;2023-09-30T10:09:36;13.48;;;4.65;;
49738;SDS011;53662;50.114;8.626;2023-09-30T10:12:02;12.88;;;5.53;;
49738;SDS011;53662;50.114;8.626;2023-09-30T10:14:32;6.97;;;4.63;;
49738;SDS011;53662;50.114;8.626;2023-09-30T10:16:58;9.65;;;4.82;;
49738;SDS011;53662;50.114;8.626;2023-09-30T10:19:24;10.38;;;4.63;;
49738;SDS011;53662;50.114;8.626;2023-09-30T10:24:37;13.35;;;4.40;;
49738;SDS011;53662;50.114;8.626;2023-09-30T10:29:48;7.97;;;4.40;;
49738;SDS011;53662;50.114;8.626;2023-09-30T10:32:14;6.75;;;4.13;;
49738;SDS011;53662;50.114;8.626;2023-09-30T10:34:47;9.35;;;3.42;;
49738;SDS011;53662;50.114;8.626;2023-09-30T10:37:20;4.43;;;3.33;;
49738;SDS011;53662;50.114;8.626;2023-09-30T10:39:53;6.97;;;3.10;;
49738;SDS011;53662;50.114;8.626;2023-09-30T10:45:05;7.25;;;3.72;;
49738;SDS011;53662;50.114;8.626;2023-09-30T10:49:57;7.03;;;3.08;;
49738;SDS011;53662;50.114;8.626;2023-09-30T10:52:23;10.70;;;3.10;;
49738;SDS011;53662;50.114;8.626;2023-09-30T10:54:49;11.38;;;3.33;;
49738;SDS011;53662;50.114;8.626;2023-09-30T10:57:26;4.72;;;3.25;;
49738;SDS011;53662;50.114;8.626;2023-09-30T11:00:06;6.22;;;3.42;;
49738;SDS011;53662;50.114;8.626;2023-09-30T11:02:33;3.60;;;2.67;;
49738;SDS011;53662;50.114;8.626;2023-09-30T11:05:08;6.25;;;3.08;;
49738;SDS011;53662;50.114;8.626;2023-09-30T11:07:34;10.02;;;3.03;;
49738;SDS011;53662;50.114;8.626;2023-09-30T11:10:01;4.45;;;3.20;;
49738;SDS011;53662;50.114;8.626;2023-09-30T11:12:27;9.98;;;3.08;;
49738;SDS011;53662;50.114;8.626;2023-09-30T11:15:02;8.63;;;3.15;;
49738;SDS011;53662;50.114;8.626;2023-09-30T11:17:28;6.43;;;3.03;;
49738;SDS011;53662;50.114;8.626;2023-09-30T11:19:54;6.30;;;3.03;;
49738;SDS011;53662;50.114;8.626;2023-09-30T11:22:20;9.35;;;3.13;;
49738;SDS011;53662;50.114;8.626;2023-09-30T11:24:46;3.85;;;2.80;;
49738;SDS011;53662;50.114;8.626;2023-09-30T11:27:12;7.28;;;3.15;;
49738;SDS011;53662;50.114;8.626;2023-09-30T11:29:48;6.05;;;2.97;;
49738;SDS011;53662;50.114;8.626;2023-09-30T11:32:23;3.58;;;2.90;;
49738;SDS011;53662;50.114;8.626;2023-09-30T11:34:51;4.43;;;2.63;;
49738;SDS011;53662;50.114;8.626;2023-09-30T11:37:18;4.05;;;2.38;;
49738;SDS011;53662;50.114;8.626;2023-09-30T11:39:44;3.65;;;2.45;;
49738;SDS011;53662;50.114;8.626;2023-09-30T11:42:16;4.97;;;3.13;;
49738;SDS011;53662;50.114;8.626;2023-09-30T11:44:44;6.75;;;2.95;;
49738;SDS011;53662;50.114;8.626;2023-09-30T11:47:15;3.97;;;2.83;;
49738;SDS011;53662;50.114;8.626;2023-09-30T11:49:41;5.53;;;3.00;;
49738;SDS011;53662;50.114;8.626;2023-09-30T11:52:12;4.93;;;2.60;;
49738;SDS011;53662;50.114;8.626;2023-09-30T11:54:43;4.50;;;2.80;;
49738;SDS011;53662;50.114;8.626;2023-09-30T11:57:10;5.95;;;2.63;;
49738;SDS011;53662;50.114;8.626;2023-09-30T11:59:39;8.02;;;2.88;;
49738;SDS011;53662;50.114;8.626;2023-09-30T12:02:06;4.93;;;2.60;;
49738;SDS011;53662;50.114;8.626;2023-09-30T12:04:33;2.67;;;2.38;;
49738;SDS011;53662;50.114;8.626;2023-09-30T12:06:59;7.13;;;2.75;;
49738;SDS011;53662;50.114;8.626;2023-09-30T12:09:25;6.25;;;2.83;;
49738;SDS011;53662;50.114;8.626;2023-09-30T12:11:52;5.32;;;2.58;;
49738;SDS011;53662;50.114;8.626;2023-09-30T12:14:18;3.97;;;2.53;;
49738;SDS011;53662;50.114;8.626;2023-09-30T12:16:44;4.30;;;2.58;;
49738;SDS011;53662;50.114;8.626;2023-09-30T12:19:10;4.55;;;2.90;;
49738;SDS011;53662;50.114;8.626;2023-09-30T12:21:38;4.95;;;3.00;;
49738;SDS011;53662;50.114;8.626;2023-09-30T12:24:05;2.85;;;2.20;;
49738;SDS011;53662;50.114;8.626;2023-09-30T12:26:32;2.55;;;2.20;;
49738;SDS011;53662;50.114;8.626;2023-09-30T12:28:59;3.70;;;2.40;;
49738;SDS011;53662;50.114;8.626;2023-09-30T12:31:25;4.22;;;2.10;;
49738;SDS011;53662;50.114;8.626;2023-09-30T12:33:51;3.65;;;1.58;;
49738;SDS011;53662;50.114;8.626;2023-09-30T12:36:18;2.13;;;1.90;;
49738;SDS011;53662;50.114;8.626;2023-09-30T12:38:44;2.25;;;1.90;;
49738;SDS011;53662;50.114;8.626;2023-09-30T12:41:10;2.42;;;2.22;;
49738;SDS011;53662;50.114;8.626;2023-09-30T12:43:37;3.20;;;2.83;;
49738;SDS011;53662;50.114;8.626;2023-09-30T12:46:03;2.63;;;2.10;;
49738;SDS011;53662;50.114;8.626;2023-09-30T12:48:32;5.72;;;2.40;;
49738;SDS011;53662;50.114;8.626;2023-09-30T12:50:59;2.65;;;2.25;;
49738;SDS011;53662;50.114;8.626;2023-09-30T12:53:25;2.70;;;1.92;;
49738;SDS011;53662;50.114;8.626;2023-09-30T12:55:51;2.95;;;2.17;;
49738;SDS011;53662;50.114;8.626;2023-09-30T12:58:17;2.70;;;1.88;;
49738;SDS011;53662;50.114;8.626;2023-09-30T13:00:43;2.25;;;2.15;;
49738;SDS011;53662;50.114;8.626;2023-09-30T13:03:09;2.47;;;2.28;;
49738;SDS011;53662;50.114;8.626;2023-09-30T13:05:35;5.05;;;2.50;;
49738;SDS011;53662;50.114;8.626;2023-09-30T13:08:01;2.45;;;2.08;;
49738;SDS011;53662;50.114;8.626;2023-09-30T13:10:27;2.33;;;2.10;;
49738;SDS011;53662;50.114;8.626;2023-09-30T13:12:55;1.88;;;1.77;;
49738;SDS011;53662;50.114;8.626;2023-09-30T13:15:21;2.42;;;2.20;;
49738;SDS011;53662;50.114;8.626;2023-09-30T13:17:49;2.42;;;2.10;;
49738;SDS011;53662;50.114;8.626;2023-09-30T13:20:15;4.47;;;2.17;;
49738;SDS011;53662;50.114;8.626;2023-09-30T13:22:42;4.40;;;2.15;;
49738;SDS011;53662;50.114;8.626;2023-09-30T13:25:08;5.50;;;1.90;;
49738;SDS011;53662;50.114;8.626;2023-09-30T13:27:37;5.40;;;2.00;;
49738;SDS011;53662;50.114;8.626;2023-09-30T13:30:03;5.28;;;2.25;;
49738;SDS011;53662;50.114;8.626;2023-09-30T13:32:29;2.30;;;1.90;;
49738;SDS011;53662;50.114;8.626;2023-09-30T13:34:55;4.68;;;2.08;;
49738;SDS011;53662;50.114;8.626;2023-09-30T13:37:21;3.35;;;2.35;;
49738;SDS011;53662;50.114;8.626;2023-09-30T13:39:47;3.05;;;2.17;;
49738;SDS011;53662;50.114;8.626;2023-09-30T13:42:15;3.92;;;1.95;;
49738;SDS011;53662;50.114;8.626;2023-09-30T13:44:42;4.72;;;2.40;;
49738;SDS011;53662;50.114;8.626;2023-09-30T13:47:08;5.07;;;1.98;;
49738;SDS011;53662;50.114;8.626;2023-09-30T13:49:34;2.25;;;2.05;;
49738;SDS011;53662;50.114;8.626;2023-09-30T13:52:00;2.22;;;2.05;;
49738;SDS011;53662;50.114;8.626;2023-09-30T13:54:26;3.88;;;2.63;;
49738;SDS011;53662;50.114;8.626;2023-09-30T13:56:52;2.78;;;1.95;;
49738;SDS011;53662;50.114;8.626;2023-09-30T13:59:18;5.97;;;2.47;;
49738;SDS011;53662;50.114;8.626;2023-09-30T14:01:44;3.95;;;2.08;;
49738;SDS011;53662;50.114;8.626;2023-09-30T14:04:10;6.53;;;2.38;;
49738;SDS011;53662;50.114;8.626;2023-09-30T14:06:36;2.47;;;2.13;;
49738;SDS011;53662;50.114;8.626;2023-09-30T14:09:02;3.75;;;2.20;;
49738;SDS011;53662;50.114;8.626;2023-09-30T14:11:28;6.07;;;2.40;;
49738;SDS011;53662;50.114;8.626;2023-09-30T14:13:55;4.50;;;2.00;;
49738;SDS011;53662;50.114;8.626;2023-09-30T14:16:21;2.00;;;1.90;;
49738;SDS011;53662;50.114;8.626;2023-09-30T14:18:47;3.97;;;2.58;;
49738;SDS011;53662;50.114;8.626;2023-09-30T14:21:14;3.17;;;2.22;;
49738;SDS011;53662;50.114;8.626;2023-09-30T14:23:40;5.43;;;4.53;;
49738;SDS011;53662;50.114;8.626;2023-09-30T14:26:06;3.08;;;2.28;;
49738;SDS011;53662;50.114;8.626;2023-09-30T14:28:36;3.30;;;2.42;;
49738;SDS011;53662;50.114;8.626;2023-09-30T14:31:03;4.20;;;2.58;;
49738;SDS011;53662;50.114;8.626;2023-09-30T14:33:29;4.18;;;2.50;;
49738;SDS011;53662;50.114;8.626;2023-09-30T14:35:55;2.97;;;2.30;;
49738;SDS011;53662;50.114;8.626;2023-09-30T14:38:21;4.70;;;2.45;;
49738;SDS011;53662;50.114;8.626;2023-09-30T14:40:48;3.67;;;2.35;;
49738;SDS011;53662;50.114;8.626;2023-09-30T14:43:15;5.28;;;2.47;;
49738;SDS011;53662;50.114;8.626;2023-09-30T14:45:41;2.75;;;2.45;;
49738;SDS011;53662;50.114;8.626;2023-09-30T14:48:07;3.05;;;2.75;;
49738;SDS011;53662;50.114;8.626;2023-09-30T14:50:33;4.25;;;2.63;;
49738;SDS011;53662;50.114;8.626;2023-09-30T14:52:59;6.18;;;2.33;;
49738;SDS011;53662;50.114;8.626;2023-09-30T14:55:28;3.80;;;2.38;;
49738;SDS011;53662;50.114;8.626;2023-09-30T14:57:54;4.53;;;2.88;;